createdAt,value
2023-02-06T00:01:26.104Z,103100.75
2023-02-06T00:03:53.327Z,103090.06
2023-02-06T00:06:20.478Z,103092.44
2023-02-06T00:08:47.540Z,103086.28
2023-02-06T00:11:16.837Z,103086.28
2023-02-06T00:13:45.278Z,103094.84
2023-02-06T00:16:22.816Z,103095.16
2023-02-06T00:18:50.752Z,103100.59
2023-02-06T00:21:21.981Z,103110.09
2023-02-06T00:23:49.937Z,103117.16
2023-02-06T00:26:17.840Z,103128.59
2023-02-06T00:28:45.903Z,103120.34
2023-02-06T00:31:13.404Z,103118.84
2023-02-06T00:33:40.468Z,103109.69
2023-02-06T00:36:08.596Z,103113.72
2023-02-06T00:38:37.810Z,103121.25
2023-02-06T00:41:05.285Z,103115.97
2023-02-06T00:43:33.081Z,103115.81
2023-02-06T00:46:00.260Z,103114.94
2023-02-06T00:48:27.770Z,103132.84
2023-02-06T00:50:55.771Z,103118.25
2023-02-06T00:53:22.945Z,103114.03
2023-02-06T00:55:49.998Z,103112.38
2023-02-06T00:58:16.986Z,103114.94
2023-02-06T01:00:44.299Z,103115.81
2023-02-06T01:03:11.640Z,103108.91
2023-02-06T01:05:38.957Z,103112.38
2023-02-06T01:08:06.132Z,103109.22
2023-02-06T01:10:33.105Z,103111.03
2023-02-06T01:13:00.884Z,103108.78
2023-02-06T01:15:28.163Z,103091.22
2023-02-06T01:17:55.127Z,103099.03
2023-02-06T01:20:23.039Z,103110.75
2023-02-06T01:22:50.609Z,103116.63
2023-02-06T01:25:17.620Z,103114.31
2023-02-06T01:27:44.684Z,103114.94
2023-02-06T01:30:12.582Z,103120.91
2023-02-06T01:32:41.878Z,103112.22
2023-02-06T01:35:13.105Z,103112.63
2023-02-06T01:37:40.590Z,103101.94
2023-02-06T01:40:14.888Z,103101.94
2023-02-06T01:42:42.093Z,103094.09
2023-02-06T01:45:27.132Z,103088.97
2023-02-06T01:48:03.660Z,103082.06
2023-02-06T01:50:34.541Z,103087.00
2023-02-06T01:53:03.583Z,103069.75
2023-02-06T01:55:30.748Z,103064.16
2023-02-06T01:57:58.441Z,103070.75
2023-02-06T02:00:25.707Z,103057.63
2023-02-06T02:02:52.980Z,103066.78
2023-02-06T02:05:20.716Z,103058.84
2023-02-06T02:07:52.986Z,103052.66
2023-02-06T02:10:20.099Z,103054.47
2023-02-06T02:12:47.166Z,103055.97
2023-02-06T02:15:14.360Z,103054.88
2023-02-06T02:17:56.193Z,103055.63
2023-02-06T02:21:13.742Z,103044.34
2023-02-06T02:23:55.972Z,103036.69
2023-02-06T02:26:49.125Z,103035.03
2023-02-06T02:29:47.148Z,103038.50
2023-02-06T02:32:41.780Z,103030.66
2023-02-06T02:35:34.266Z,103026.47
2023-02-06T02:38:07.386Z,103023.16
2023-02-06T02:40:48.149Z,103022.00
2023-02-06T02:43:51.765Z,103016.91
2023-02-06T02:46:29.370Z,103017.88
2023-02-06T02:49:03.640Z,103023.16
2023-02-06T02:51:32.098Z,103014.75
2023-02-06T02:53:59.178Z,103014.81
2023-02-06T02:56:27.380Z,103006.09
2023-02-06T02:59:01.326Z,103002.50
2023-02-06T03:01:48.952Z,102998.88
2023-02-06T03:04:23.948Z,102997.13
2023-02-06T03:07:23.712Z,103004.78
2023-02-06T03:10:14.787Z,102995.94
2023-02-06T03:13:03.284Z,102998.03
2023-02-06T03:15:43.138Z,103003.75
2023-02-06T03:18:24.662Z,103014.44
2023-02-06T03:20:52.452Z,103024.25
2023-02-06T03:23:27.392Z,103018.81
2023-02-06T03:25:58.556Z,103017.63
2023-02-06T03:28:37.804Z,103020.00
2023-02-06T03:31:11.457Z,103007.97
2023-02-06T03:33:49.648Z,103008.69
2023-02-06T03:36:18.484Z,102998.91
2023-02-06T03:38:47.773Z,102990.78
2023-02-06T03:41:16.797Z,102979.94
2023-02-06T03:43:47.591Z,102986.22
2023-02-06T03:46:18.146Z,102990.75
2023-02-06T03:48:52.717Z,102991.66
2023-02-06T03:51:26.239Z,102990.31
2023-02-06T03:53:55.905Z,103005.22
2023-02-06T03:56:32.760Z,103009.09
2023-02-06T03:59:00.109Z,103011.38
2023-02-06T04:01:28.005Z,103016.63
2023-02-06T04:03:55.227Z,102998.09
2023-02-06T04:06:22.391Z,103010.44
2023-02-06T04:08:49.480Z,103005.75
2023-02-06T04:11:16.505Z,103005.13
2023-02-06T04:13:43.497Z,103007.09
2023-02-06T04:16:10.583Z,103006.66
2023-02-06T04:18:37.551Z,103010.38
2023-02-06T04:21:06.809Z,103003.75
2023-02-06T04:23:34.278Z,102994.53
2023-02-06T04:26:02.256Z,102997.09
2023-02-06T04:28:29.220Z,102980.06
2023-02-06T04:30:56.370Z,102988.50
2023-02-06T04:33:23.407Z,102980.22
2023-02-06T04:35:50.439Z,102965.88
2023-02-06T04:38:17.784Z,102951.38
2023-02-06T04:40:44.878Z,102973.56
2023-02-06T04:43:11.913Z,102987.28
2023-02-06T04:45:39.042Z,102961.66
2023-02-06T04:48:06.242Z,102964.34
2023-02-06T04:50:34.350Z,102954.84
2023-02-06T04:53:02.278Z,102960.75
2023-02-06T04:55:29.416Z,102957.28
2023-02-06T04:57:56.424Z,102967.69
2023-02-06T05:00:23.514Z,102960.13
2023-02-06T05:02:50.596Z,102974.88
2023-02-06T05:05:17.810Z,102970.78
2023-02-06T05:07:44.829Z,102963.09
2023-02-06T05:10:12.084Z,102959.94
2023-02-06T05:12:39.017Z,102959.16
2023-02-06T05:15:06.615Z,102966.09
2023-02-06T05:17:33.665Z,102966.09
2023-02-06T05:20:00.858Z,102970.63
2023-02-06T05:22:27.968Z,102965.78
2023-02-06T05:24:54.963Z,102959.88
2023-02-06T05:27:22.032Z,102954.13
2023-02-06T05:29:49.074Z,102960.31
2023-02-06T05:32:16.210Z,102962.72
2023-02-06T05:34:43.201Z,102952.63
2023-02-06T05:37:10.212Z,102953.22
2023-02-06T05:39:40.065Z,102943.88
2023-02-06T05:42:07.091Z,102941.59
2023-02-06T05:44:34.174Z,102946.13
2023-02-06T05:47:01.186Z,102948.81
2023-02-06T05:49:28.275Z,102947.91
2023-02-06T05:51:55.355Z,102948.81
2023-02-06T05:54:22.933Z,102971.16
2023-02-06T05:56:49.880Z,102973.72
2023-02-06T05:59:16.932Z,102957.72
2023-02-06T06:01:44.010Z,102965.66
2023-02-06T06:04:11.455Z,102972.00
2023-02-06T06:06:38.470Z,102975.59
2023-02-06T06:09:05.762Z,102990.25
2023-02-06T06:11:33.563Z,102986.91
2023-02-06T06:14:00.884Z,102981.94
2023-02-06T06:16:28.076Z,102983.88
2023-02-06T06:18:55.923Z,102992.47
2023-02-06T06:21:24.065Z,102991.84
2023-02-06T06:23:51.083Z,102992.88
2023-02-06T06:26:18.282Z,102993.78
2023-02-06T06:28:45.431Z,102997.25
2023-02-06T06:31:12.558Z,103005.38
2023-02-06T06:33:40.608Z,102996.03
2023-02-06T06:36:10.214Z,102990.91
2023-02-06T06:38:38.020Z,102989.09
2023-02-06T06:41:06.269Z,102995.88
2023-02-06T06:43:33.921Z,102994.22
2023-02-06T06:46:02.281Z,102995.41
2023-02-06T06:48:29.404Z,102994.66
2023-02-06T06:50:56.426Z,102988.88
2023-02-06T06:53:24.059Z,102983.75
2023-02-06T06:55:51.010Z,102967.72
2023-02-06T06:58:18.006Z,102965.91
2023-02-06T07:00:45.109Z,102972.56
2023-02-06T07:03:12.580Z,102976.03
2023-02-06T07:05:39.769Z,102964.88
2023-02-06T07:08:06.792Z,102964.13
2023-02-06T07:10:33.858Z,102973.47
2023-02-06T07:13:00.815Z,102971.19
2023-02-06T07:15:27.824Z,102973.28
2023-02-06T07:17:54.801Z,102967.53
2023-02-06T07:20:21.796Z,102965.13
2023-02-06T07:22:50.337Z,102977.94
2023-02-06T07:25:20.231Z,102973.84
2023-02-06T07:27:47.935Z,102978.34
2023-02-06T07:30:15.203Z,102978.00
2023-02-06T07:32:42.176Z,102980.88
2023-02-06T07:35:09.274Z,102978.72
2023-02-06T07:37:36.256Z,102983.34
2023-02-06T07:40:04.602Z,102984.69
2023-02-06T07:42:33.498Z,102979.97
2023-02-06T07:45:00.873Z,102981.25
2023-02-06T07:47:27.944Z,102981.53
2023-02-06T07:49:54.921Z,102979.38
2023-02-06T07:52:22.517Z,102977.97
2023-02-06T07:54:49.484Z,102977.63
2023-02-06T07:57:16.667Z,102971.25
2023-02-06T07:59:43.709Z,102960.59
2023-02-06T08:02:12.457Z,102967.94
2023-02-06T08:04:40.221Z,102963.22
2023-02-06T08:07:09.939Z,102960.94
2023-02-06T08:09:37.106Z,102961.94
2023-02-06T08:12:04.289Z,102964.50
2023-02-06T08:14:31.592Z,102978.53
2023-02-06T08:16:58.878Z,102987.28
2023-02-06T08:19:25.947Z,102994.38
2023-02-06T08:21:53.060Z,102981.25
2023-02-06T08:24:20.112Z,102975.19
2023-02-06T08:26:47.233Z,102977.16
2023-02-06T08:29:14.497Z,102970.06
2023-02-06T08:31:43.353Z,102971.88
2023-02-06T08:34:14.891Z,102974.56
2023-02-06T08:36:43.686Z,102977.16
2023-02-06T08:39:14.537Z,102982.56
2023-02-06T08:41:43.592Z,102966.88
2023-02-06T08:44:17.039Z,102970.16
2023-02-06T08:46:46.329Z,102971.56
2023-02-06T08:49:17.718Z,102975.84
2023-02-06T08:51:45.478Z,102980.72
2023-02-06T08:54:17.613Z,102983.56
2023-02-06T08:56:45.541Z,102981.53
2023-02-06T08:59:15.316Z,102982.06
2023-02-06T09:01:45.567Z,102970.84
2023-02-06T09:04:14.435Z,102973.06
2023-02-06T09:06:46.559Z,102970.50
2023-02-06T09:09:13.608Z,102966.00
2023-02-06T09:11:41.139Z,102966.50
2023-02-06T09:14:13.825Z,102969.34
2023-02-06T09:16:40.813Z,102972.94
2023-02-06T09:19:08.107Z,102974.75
2023-02-06T09:21:36.018Z,102970.38
2023-02-06T09:24:07.440Z,102982.22
2023-02-06T09:26:44.752Z,102996.75
2023-02-06T09:29:17.401Z,103005.88
2023-02-06T09:31:44.876Z,103004.47
2023-02-06T09:34:13.148Z,103016.69
2023-02-06T09:36:40.888Z,103020.78
2023-02-06T09:39:09.610Z,103025.16
2023-02-06T09:41:44.991Z,103024.88
2023-02-06T09:44:51.305Z,103024.31
2023-02-06T09:47:30.693Z,103039.50
2023-02-06T09:50:26.885Z,103042.03
2023-02-06T09:53:02.973Z,103028.41
2023-02-06T09:55:48.930Z,103035.22
2023-02-06T09:58:36.769Z,103027.66
2023-02-06T10:01:26.613Z,103030.84
2023-02-06T10:04:40.975Z,103029.53
2023-02-06T10:07:20.057Z,103035.06
2023-02-06T10:09:52.007Z,103040.41
2023-02-06T10:12:30.093Z,103045.53
2023-02-06T10:15:20.957Z,103047.47
2023-02-06T10:17:58.801Z,103045.09
2023-02-06T10:20:56.144Z,103048.38
2023-02-06T10:23:49.305Z,103052.34
2023-02-06T10:26:19.121Z,103046.72
2023-02-06T10:28:53.108Z,103049.41
2023-02-06T10:31:26.515Z,103043.56
2023-02-06T10:34:44.008Z,103034.50
2023-02-06T10:37:58.105Z,103047.34
2023-02-06T10:40:55.286Z,103041.94
2023-02-06T10:43:53.764Z,103020.25
2023-02-06T10:46:26.619Z,103024.13
2023-02-06T10:49:35.547Z,103023.88
2023-02-06T10:52:22.401Z,103022.97
2023-02-06T10:54:59.572Z,103016.78
2023-02-06T10:57:31.317Z,103021.38
2023-02-06T11:00:01.398Z,103032.94
2023-02-06T11:03:06.774Z,103046.97
2023-02-06T11:05:36.044Z,103027.34
2023-02-06T11:08:24.688Z,103033.69
2023-02-06T11:10:52.517Z,103042.72
2023-02-06T11:13:31.964Z,103048.22
2023-02-06T11:16:06.431Z,103054.47
2023-02-06T11:18:41.244Z,103038.53
2023-02-06T11:21:10.706Z,103047.63
2023-02-06T11:23:37.676Z,103049.66
2023-02-06T11:26:18.943Z,103041.69
2023-02-06T11:28:54.260Z,103031.91
2023-02-06T11:31:44.388Z,103036.00
2023-02-06T11:34:30.553Z,103038.91
2023-02-06T11:37:07.449Z,103039.56
2023-02-06T11:39:39.871Z,103045.75
2023-02-06T11:42:24.722Z,103044.41
2023-02-06T11:44:53.082Z,103060.28
2023-02-06T11:47:33.008Z,103057.19
2023-02-06T11:50:15.247Z,103051.28
2023-02-06T11:52:46.900Z,103060.81
2023-02-06T11:55:29.854Z,103056.56
2023-02-06T11:58:14.995Z,103064.13
2023-02-06T12:00:58.870Z,103052.44
2023-02-06T12:03:46.221Z,103057.72
2023-02-06T12:06:33.064Z,103051.00
2023-02-06T12:09:05.953Z,103053.22
2023-02-06T12:11:49.320Z,103051.56
2023-02-06T12:14:38.946Z,103060.59
2023-02-06T12:17:23.734Z,103052.34
2023-02-06T12:20:33.158Z,103060.59
2023-02-06T12:23:24.126Z,103050.81
2023-02-06T12:25:57.048Z,103062.28
2023-02-06T12:28:34.096Z,103062.41
2023-02-06T12:31:19.597Z,103062.16
2023-02-06T12:33:54.939Z,103065.03
2023-02-06T12:36:35.246Z,103058.84
2023-02-06T12:39:13.225Z,103067.69
2023-02-06T12:42:02.902Z,103078.22
2023-02-06T12:45:02.183Z,103083.47
2023-02-06T12:47:49.483Z,103085.75
2023-02-06T12:50:34.696Z,103082.28
2023-02-06T12:53:19.080Z,103074.44
2023-02-06T12:56:23.242Z,103078.31
2023-02-06T12:59:41.634Z,103071.03
2023-02-06T13:02:45.942Z,103078.91
2023-02-06T13:05:34.411Z,103078.03
2023-02-06T13:08:10.307Z,103078.22
2023-02-06T13:10:38.499Z,103079.00
2023-02-06T13:13:06.125Z,103090.34
2023-02-06T13:15:40.704Z,103097.53
2023-02-06T13:18:42.092Z,103086.44
2023-02-06T13:21:32.385Z,103082.13
2023-02-06T13:24:02.363Z,103085.19
2023-02-06T13:26:53.114Z,103088.31
2023-02-06T13:29:28.198Z,103087.00
2023-02-06T13:32:18.512Z,103100.00
2023-02-06T13:35:07.581Z,103088.59
2023-02-06T13:37:48.300Z,103091.16
2023-02-06T13:40:24.475Z,103096.53
2023-02-06T13:43:21.692Z,103094.75
2023-02-06T13:46:00.416Z,103094.00
2023-02-06T13:48:52.868Z,103102.50
2023-02-06T13:51:57.571Z,103105.56
2023-02-06T13:54:54.700Z,103105.19
2023-02-06T13:57:52.658Z,103103.75
2023-02-06T14:00:28.886Z,103116.28
2023-02-06T14:03:29.884Z,103115.63
2023-02-06T14:06:51.959Z,103114.59
2023-02-06T14:09:36.676Z,103116.13
2023-02-06T14:12:44.491Z,103117.94
2023-02-06T14:15:30.038Z,103117.31
2023-02-06T14:18:16.598Z,103120.53
2023-02-06T14:21:01.966Z,103132.63
2023-02-06T14:24:00.110Z,103134.25
2023-02-06T14:26:41.879Z,103133.00
2023-02-06T14:29:51.697Z,103136.34
2023-02-06T14:32:54.279Z,103143.69
2023-02-06T14:35:50.764Z,103149.72
2023-02-06T14:38:50.287Z,103149.34
2023-02-06T14:41:17.972Z,103149.97
2023-02-06T14:43:46.817Z,103158.94
2023-02-06T14:46:18.122Z,103165.50
2023-02-06T14:48:56.428Z,103170.25
2023-02-06T14:51:34.140Z,103192.38
2023-02-06T14:54:06.911Z,103192.59
2023-02-06T14:56:37.569Z,103182.41
2023-02-06T14:59:13.430Z,103189.28
2023-02-06T15:01:42.812Z,103185.75
2023-02-06T15:04:26.387Z,103190.28
2023-02-06T15:07:03.433Z,103191.28
2023-02-06T15:09:33.659Z,103186.94
2023-02-06T15:12:18.953Z,103185.50
2023-02-06T15:15:02.705Z,103193.13
2023-02-06T15:17:31.578Z,103199.25
2023-02-06T15:20:40.884Z,103205.81
2023-02-06T15:23:18.895Z,103207.66
2023-02-06T15:26:08.956Z,103204.13
2023-02-06T15:28:37.981Z,103210.22
2023-02-06T15:31:19.039Z,103212.19
2023-02-06T15:33:53.214Z,103220.50
2023-02-06T15:36:30.766Z,103217.38
2023-02-06T15:39:00.003Z,103228.25
2023-02-06T15:41:30.920Z,103229.78
2023-02-06T15:44:04.386Z,103216.94
2023-02-06T15:46:31.909Z,103235.66
2023-02-06T15:48:59.278Z,103231.13
2023-02-06T15:51:38.610Z,103241.13
2023-02-06T15:54:09.270Z,103243.25
2023-02-06T15:56:40.594Z,103239.50
2023-02-06T15:59:23.066Z,103254.44
2023-02-06T16:01:52.847Z,103240.41
2023-02-06T16:04:27.399Z,103257.19
2023-02-06T16:07:05.463Z,103254.19
2023-02-06T16:09:41.203Z,103257.50
2023-02-06T16:12:09.852Z,103250.25
2023-02-06T16:14:50.999Z,103256.88
2023-02-06T16:17:17.874Z,103248.16
2023-02-06T16:20:04.977Z,103246.06
2023-02-06T16:22:38.290Z,103256.91
2023-02-06T16:25:31.496Z,103257.53
2023-02-06T16:27:59.780Z,103265.22
2023-02-06T16:30:36.439Z,103260.56
2023-02-06T16:33:38.099Z,103256.94
2023-02-06T16:36:05.622Z,103253.31
2023-02-06T16:38:33.194Z,103258.44
2023-02-06T16:41:00.313Z,103263.44
2023-02-06T16:43:30.226Z,103261.47
2023-02-06T16:45:59.543Z,103274.44
2023-02-06T16:48:26.504Z,103288.19
2023-02-06T16:50:53.456Z,103292.41
2023-02-06T16:53:24.838Z,103290.59
2023-02-06T16:55:52.480Z,103297.06
2023-02-06T16:58:23.972Z,103297.38
2023-02-06T17:00:51.815Z,103306.44
2023-02-06T17:03:18.918Z,103294.97
2023-02-06T17:05:48.676Z,103294.66
2023-02-06T17:08:22.094Z,103294.38
2023-02-06T17:10:50.020Z,103291.50
2023-02-06T17:13:23.840Z,103291.94
2023-02-06T17:15:54.849Z,103295.84
2023-02-06T17:18:23.504Z,103308.50
2023-02-06T17:20:53.313Z,103301.72
2023-02-06T17:23:20.544Z,103302.47
2023-02-06T17:25:47.613Z,103309.13
2023-02-06T17:28:18.928Z,103315.28
2023-02-06T17:30:46.440Z,103315.28
2023-02-06T17:33:13.520Z,103319.38
2023-02-06T17:35:40.600Z,103321.78
2023-02-06T17:38:09.692Z,103312.13
2023-02-06T17:40:40.148Z,103324.03
2023-02-06T17:43:07.729Z,103323.13
2023-02-06T17:45:38.234Z,103320.56
2023-02-06T17:48:06.401Z,103324.63
2023-02-06T17:50:34.298Z,103325.22
2023-02-06T17:53:02.844Z,103320.69
2023-02-06T17:55:29.782Z,103313.91
2023-02-06T17:57:56.791Z,103316.31
2023-02-06T18:00:25.303Z,103317.06
2023-02-06T18:02:54.071Z,103318.13
2023-02-06T18:07:51.940Z,103323.25
2023-02-06T18:10:21.371Z,103329.28
2023-02-06T18:12:49.035Z,103312.72
2023-02-06T18:15:16.807Z,103318.59
2023-02-06T18:17:44.102Z,103316.63
2023-02-06T18:20:12.184Z,103316.63
2023-02-06T18:22:42.165Z,103310.28
2023-02-06T18:25:12.840Z,103315.09
2023-02-06T18:27:41.979Z,103313.28
2023-02-06T18:30:10.280Z,103319.31
2023-02-06T18:32:38.368Z,103304.41
2023-02-06T18:35:07.708Z,103299.59
2023-02-06T18:37:35.083Z,103300.66
2023-02-06T18:40:02.784Z,103312.09
2023-02-06T18:42:48.244Z,103308.03
2023-02-06T18:45:15.219Z,103306.97
2023-02-06T18:47:42.430Z,103302.00
2023-02-06T18:50:11.333Z,103300.94
2023-02-06T18:52:39.340Z,103312.72
2023-02-06T18:55:08.679Z,103308.94
2023-02-06T18:57:36.589Z,103308.78
2023-02-06T19:00:06.868Z,103308.78
2023-02-06T19:02:34.021Z,103313.91
2023-02-06T19:05:00.959Z,103319.03
2023-02-06T19:07:28.074Z,103336.22
2023-02-06T19:10:00.853Z,103333.66
2023-02-06T19:12:29.296Z,103326.56
2023-02-06T19:14:58.190Z,103329.88
2023-02-06T19:17:26.960Z,103325.50
2023-02-06T19:19:54.275Z,103326.09
2023-02-06T19:22:21.508Z,103327.59
2023-02-06T19:24:48.618Z,103330.78
2023-02-06T19:27:15.582Z,103335.00
2023-02-06T19:29:42.505Z,103339.22
2023-02-06T19:32:09.943Z,103336.47
2023-02-06T19:34:39.850Z,103337.22
2023-02-06T19:37:09.545Z,103340.53
2023-02-06T19:39:38.012Z,103347.91
2023-02-06T19:42:10.046Z,103347.75
2023-02-06T19:44:38.020Z,103358.59
2023-02-06T19:47:05.139Z,103364.44
2023-02-06T19:49:32.577Z,103364.31
2023-02-06T19:52:00.356Z,103355.72
2023-02-06T19:54:27.787Z,103350.44
2023-02-06T19:56:55.113Z,103363.25
2023-02-06T19:59:27.239Z,103363.09
2023-02-06T20:02:02.217Z,103362.94
2023-02-06T20:04:34.138Z,103368.81
2023-02-06T20:07:02.228Z,103359.31
2023-02-06T20:09:29.756Z,103356.59
2023-02-06T20:11:57.951Z,103355.69
2023-02-06T20:14:26.094Z,103361.72
2023-02-06T20:16:53.211Z,103376.66
2023-02-06T20:19:27.887Z,103386.91
2023-02-06T20:21:59.846Z,103375.16
2023-02-06T20:24:31.309Z,103360.84
2023-02-06T20:27:02.232Z,103360.13
2023-02-06T20:29:38.584Z,103363.72
2023-02-06T20:32:07.006Z,103368.09
2023-02-06T20:34:35.275Z,103365.53
2023-02-06T20:37:02.296Z,103364.03
2023-02-06T20:39:30.886Z,103367.66
2023-02-06T20:41:58.083Z,103363.75
2023-02-06T20:44:25.048Z,103362.44
2023-02-06T20:46:52.254Z,103364.22
2023-02-06T20:49:23.273Z,103361.53
2023-02-06T20:51:51.125Z,103360.59
2023-02-06T20:54:20.184Z,103359.41
2023-02-06T20:56:47.598Z,103364.69
2023-02-06T20:59:20.074Z,103361.06
2023-02-06T21:01:47.695Z,103361.66
2023-02-06T21:04:16.662Z,103371.78
2023-02-06T21:06:44.543Z,103364.09
2023-02-06T21:09:12.175Z,103374.91
2023-02-06T21:11:44.271Z,103370.53
2023-02-06T21:14:12.241Z,103362.25
2023-02-06T21:16:40.470Z,103376.88
2023-02-06T21:19:10.360Z,103389.69
2023-02-06T21:21:38.520Z,103386.97
2023-02-06T21:24:06.549Z,103391.78
2023-02-06T21:26:33.729Z,103391.03
2023-02-06T21:29:02.501Z,103394.34
2023-02-06T21:31:37.733Z,103392.53
2023-02-06T21:34:11.660Z,103396.75
2023-02-06T21:36:39.885Z,103400.06
2023-02-06T21:39:08.944Z,103403.69
2023-02-06T21:41:36.714Z,103395.25
2023-02-06T21:44:04.532Z,103389.22
2023-02-06T21:46:31.843Z,103394.34
2023-02-06T21:48:59.033Z,103388.31
2023-02-06T21:51:26.234Z,103382.28
2023-02-06T21:53:53.199Z,103373.53
2023-02-06T21:56:24.323Z,103377.75
2023-02-06T21:58:52.024Z,103374.13
2023-02-06T22:01:29.160Z,103372.13
2023-02-06T22:03:57.323Z,103378.78
2023-02-06T22:06:24.505Z,103393.09
2023-02-06T22:08:54.218Z,103388.56
2023-02-06T22:11:30.316Z,103395.50
2023-02-06T22:14:04.227Z,103386.91
2023-02-06T22:16:31.701Z,103392.03
2023-02-06T22:19:00.677Z,103392.78
2023-02-06T22:21:30.514Z,103397.16
2023-02-06T22:24:01.233Z,103398.97
2023-02-06T22:26:30.295Z,103400.44
2023-02-06T22:29:01.002Z,103399.38
2023-02-06T22:31:32.144Z,103406.16
2023-02-06T22:34:01.141Z,103396.66
2023-02-06T22:36:31.406Z,103393.03
2023-02-06T22:39:02.272Z,103400.53
2023-02-06T22:41:30.387Z,103397.69
2023-02-06T22:43:58.191Z,103397.69
2023-02-06T22:46:33.636Z,103391.50
2023-02-06T22:49:00.727Z,103387.13
2023-02-06T22:51:28.229Z,103394.81
2023-02-06T22:53:56.294Z,103399.94
2023-02-06T22:56:31.449Z,103402.50
2023-02-06T22:59:12.085Z,103397.03
2023-02-06T23:01:46.100Z,103400.50
2023-02-06T23:04:26.414Z,103406.22
2023-02-06T23:06:53.477Z,103404.97
2023-02-06T23:09:27.159Z,103402.72
2023-02-06T23:11:58.071Z,103411.72
2023-02-06T23:14:26.092Z,103414.84
2023-02-06T23:16:53.050Z,103420.38
2023-02-06T23:19:20.602Z,103420.09
2023-02-06T23:21:51.170Z,103415.38
2023-02-06T23:24:19.510Z,103417.63
2023-02-06T23:26:49.285Z,103420.75
2023-02-06T23:29:18.298Z,103412.63
2023-02-06T23:31:47.301Z,103409.56
2023-02-06T23:34:15.568Z,103428.78
2023-02-06T23:36:44.821Z,103438.69
2023-02-06T23:39:12.044Z,103435.84
2023-02-06T23:41:39.461Z,103440.78
2023-02-06T23:44:08.069Z,103430.38
2023-02-06T23:46:38.508Z,103438.81
2023-02-06T23:49:06.517Z,103441.19
2023-02-06T23:51:35.052Z,103435.00
2023-02-06T23:54:02.602Z,103439.03
2023-02-06T23:56:32.020Z,103438.88
2023-02-06T23:59:01.466Z,103441.25
